Time;durP1;ratioP1;P1;durP2;ratioP2;P2;SDS_P1;SDS_P2;PMS_P1;PMS_P2;Temp;Humidity;BMP_temperature;BMP_pressure;BME280_temperature;BME280_humidity;BME280_pressure;Samples;Min_cycle;Max_cycle;Signal;HPM_P1;HPM_P2
2023/10/27 00:01:43;;;;;;;34.50;23.92;;;9.50;99.90;;;;;;6071898;23;20033;-86
2023/10/27 00:04:08;;;;;;;34.43;23.67;;;9.50;99.90;;;;;;6024754;23;20015;-85
2023/10/27 00:06:34;;;;;;;35.67;22.90;;;9.50;99.90;;;;;;6047886;23;20443;-89
2023/10/27 00:09:01;;;;;;;28.87;21.03;;;9.40;99.90;;;;;;6097094;23;20454;-85
2023/10/27 00:11:27;;;;;;;34.50;21.90;;;9.40;99.90;;;;;;6071639;23;20279;-87
2023/10/27 00:13:53;;;;;;;31.77;21.55;;;9.40;99.90;;;;;;6071207;23;20022;-86
2023/10/27 00:16:19;;;;;;;31.48;20.02;;;9.40;99.90;;;;;;6047457;23;20018;-86
2023/10/27 00:18:45;;;;;;;31.47;21.30;;;9.40;99.90;;;;;;6023358;23;20058;-86
2023/10/27 00:21:11;;;;;;;33.03;21.70;;;9.40;99.90;;;;;;6071129;23;20026;-86
2023/10/27 00:23:39;;;;;;;29.13;19.53;;;9.40;99.90;;;;;;6070868;23;20037;-91
2023/10/27 00:26:05;;;;;;;27.23;18.38;;;9.40;99.90;;;;;;6047230;23;20019;-86
2023/10/27 00:28:31;;;;;;;29.42;19.95;;;9.40;99.90;;;;;;6070940;23;20728;-86
2023/10/27 00:30:59;;;;;;;31.63;20.47;;;9.40;99.90;;;;;;6071043;23;20026;-86
2023/10/27 00:33:25;;;;;;;29.23;20.20;;;9.40;99.90;;;;;;6096943;23;20322;-86
2023/10/27 00:35:52;;;;;;;28.07;20.47;;;9.40;99.90;;;;;;6023847;23;20467;-86
2023/10/27 00:38:18;;;;;;;;;;;9.20;99.90;;;;;;6024017;23;20022;-86
2023/10/27 00:40:44;;;;;;;26.48;18.65;;;9.20;99.90;;;;;;6070899;23;20377;-86
2023/10/27 00:43:15;;;;;;;28.77;19.58;;;8.30;99.90;;;;;;6070669;23;20018;-86
2023/10/27 00:45:42;;;;;;;29.35;18.48;;;9.20;99.90;;;;;;6047280;23;20022;-88
2023/10/27 00:48:08;;;;;;;32.22;20.55;;;9.20;99.90;;;;;;6048031;23;20339;-85
2023/10/27 00:50:34;;;;;;;32.85;19.75;;;9.10;99.90;;;;;;6047729;23;20021;-85
2023/10/27 00:53:00;;;;;;;30.50;19.80;;;9.10;99.90;;;;;;6047510;23;20057;-86
2023/10/27 00:55:26;;;;;;;30.60;19.25;;;9.10;99.90;;;;;;6071659;23;20058;-85
2023/10/27 00:57:54;;;;;;;26.83;19.83;;;9.10;99.90;;;;;;6046953;23;20053;-86
2023/10/27 01:00:20;;;;;;;32.22;19.00;;;9.10;99.90;;;;;;6071881;23;20025;-86
2023/10/27 01:02:49;;;;;;;30.17;19.48;;;9.00;99.90;;;;;;6001195;23;20014;-86
2023/10/27 01:05:15;;;;;;;37.92;20.48;;;9.00;99.90;;;;;;6048667;23;20030;-85
2023/10/27 01:07:41;;;;;;;28.92;18.58;;;9.00;99.90;;;;;;6048051;23;20089;-85
2023/10/27 01:10:07;;;;;;;29.75;19.98;;;8.90;99.90;;;;;;6023960;23;20073;-85
2023/10/27 01:12:33;;;;;;;29.42;19.42;;;8.90;99.90;;;;;;6097173;23;20085;-85
2023/10/27 01:14:59;;;;;;;28.65;20.02;;;8.90;99.90;;;;;;6071622;23;20046;-86
2023/10/27 01:17:25;;;;;;;30.70;19.73;;;8.90;99.90;;;;;;6071540;23;20030;-85
2023/10/27 01:19:51;;;;;;;28.63;18.57;;;8.80;99.90;;;;;;6095874;23;20018;-85
2023/10/27 01:22:16;;;;;;;27.43;17.80;;;8.80;99.90;;;;;;6071485;23;20018;-84
2023/10/27 01:24:42;;;;;;;30.53;20.07;;;7.90;99.90;;;;;;6047750;23;20014;-85
2023/10/27 01:27:08;;;;;;;26.98;17.95;;;8.70;99.90;;;;;;6047183;23;20019;-86
2023/10/27 01:29:34;;;;;;;30.17;19.73;;;8.70;99.90;;;;;;6096932;23;20026;-85
2023/10/27 01:32:02;;;;;;;27.70;18.75;;;8.80;99.90;;;;;;6047614;23;20014;-85
2023/10/27 01:34:28;;;;;;;27.98;18.15;;;8.70;99.90;;;;;;6048510;23;20080;-86
2023/10/27 01:36:54;;;;;;;28.80;17.80;;;8.80;99.90;;;;;;6049045;23;20093;-86
2023/10/27 01:39:20;;;;;;;29.87;18.93;;;8.70;99.90;;;;;;6072980;23;20018;-86
2023/10/27 01:41:45;;;;;;;30.80;18.70;;;8.80;99.90;;;;;;6073016;23;20102;-86
2023/10/27 01:44:11;;;;;;;28.67;19.63;;;8.80;99.90;;;;;;6072701;23;20026;-85
2023/10/27 01:46:37;;;;;;;26.37;18.20;;;8.80;99.90;;;;;;6073370;23;20518;-86
2023/10/27 01:49:03;;;;;;;31.00;19.77;;;8.80;99.90;;;;;;6072556;23;20018;-85
2023/10/27 01:51:29;;;;;;;29.73;19.08;;;8.80;99.90;;;;;;6072962;23;20018;-86
2023/10/27 01:53:54;;;;;;;32.87;19.47;;;8.80;99.90;;;;;;6025088;23;20025;-86
2023/10/27 01:56:20;;;;;;;31.43;20.40;;;8.80;99.90;;;;;;6098526;23;20443;-85
2023/10/27 01:58:46;;;;;;;31.97;20.33;;;8.80;99.90;;;;;;6024516;23;20431;-86
2023/10/27 02:01:15;;;;;;;33.30;20.37;;;8.80;99.90;;;;;;6072381;23;20082;-85
2023/10/27 02:03:41;;;;;;;30.73;20.20;;;8.80;99.90;;;;;;6049469;23;20022;-86
2023/10/27 02:06:07;;;;;;;33.22;20.58;;;8.90;99.90;;;;;;6048551;23;20461;-86
2023/10/27 02:08:35;;;;;;;34.63;21.53;;;8.90;99.90;;;;;;6072343;23;20019;-89
2023/10/27 02:11:02;;;;;;;32.65;21.02;;;8.90;99.90;;;;;;6072201;23;20015;-85
2023/10/27 02:13:28;;;;;;;30.60;20.27;;;8.90;99.90;;;;;;6098134;23;20014;-85
2023/10/27 02:15:54;;;;;;;35.10;20.65;;;8.90;99.90;;;;;;6072072;23;20061;-87
2023/10/27 02:18:19;;;;;;;31.17;19.57;;;9.00;99.90;;;;;;6024754;23;20022;-85
2023/10/27 02:20:47;;;;;;;29.13;18.33;;;9.00;99.90;;;;;;6072881;23;20347;-85
2023/10/27 02:23:15;;;;;;;29.70;18.63;;;9.00;99.90;;;;;;6072542;23;20101;-86
2023/10/27 02:25:41;;;;;;;29.10;18.35;;;9.00;99.90;;;;;;6072769;23;20022;-85
2023/10/27 02:28:09;;;;;;;26.83;17.35;;;9.00;99.90;;;;;;6098119;23;20478;-86
2023/10/27 02:30:35;;;;;;;28.10;18.55;;;9.00;99.90;;;;;;6072640;23;20025;-85
2023/10/27 02:33:01;;;;;;;32.40;17.53;;;9.10;99.90;;;;;;6049160;23;20015;-86
2023/10/27 02:35:28;;;;;;;28.63;17.33;;;9.10;99.90;;;;;;6048965;23;20389;-84
2023/10/27 02:37:54;;;;;;;26.48;16.65;;;9.10;99.90;;;;;;6049518;23;20502;-83
2023/10/27 02:40:20;;;;;;;;;;;8.50;99.90;;;;;;6073321;23;20022;-85
2023/10/27 02:42:46;;;;;;;23.83;16.23;;;9.10;99.90;;;;;;6072892;23;19940;-85
2023/10/27 02:45:11;;;;;;;23.47;15.20;;;9.10;99.90;;;;;;6098096;23;20101;-85
2023/10/27 02:47:37;;;;;;;24.53;13.97;;;9.10;99.90;;;;;;6072875;23;20039;-85
2023/10/27 02:50:03;;;;;;;29.23;17.30;;;9.20;99.90;;;;;;6097755;23;20070;-85
2023/10/27 02:52:29;;;;;;;26.87;17.17;;;9.20;99.90;;;;;;6072794;23;20025;-85
2023/10/27 02:54:54;;;;;;;26.13;16.10;;;9.20;99.90;;;;;;6048688;23;20344;-85
2023/10/27 02:57:20;;;;;;;25.40;15.83;;;9.20;99.90;;;;;;6072559;23;20033;-85
2023/10/27 02:59:48;;;;;;;23.73;15.53;;;9.20;99.90;;;;;;6071847;23;20019;-87
2023/10/27 03:02:14;;;;;;;22.92;14.65;;;9.20;99.90;;;;;;6048447;23;20018;-85
2023/10/27 03:04:40;;;;;;;24.17;15.23;;;9.20;99.90;;;;;;6048366;23;20026;-85
2023/10/27 03:07:05;;;;;;;25.70;16.17;;;9.20;99.90;;;;;;6095804;23;20022;-85
2023/10/27 03:09:31;;;;;;;23.07;16.20;;;9.20;99.90;;;;;;6072602;23;20019;-85
2023/10/27 03:11:57;;;;;;;26.57;16.23;;;9.20;99.90;;;;;;6072173;23;20052;-86
2023/10/27 03:14:23;;;;;;;24.63;16.57;;;9.20;99.90;;;;;;6071976;23;20045;-86
2023/10/27 03:16:48;;;;;;;26.53;16.73;;;9.30;99.90;;;;;;6096216;23;20049;-86
2023/10/27 03:19:14;;;;;;;22.70;14.93;;;9.20;99.90;;;;;;6072088;23;20018;-86
2023/10/27 03:21:40;;;;;;;25.27;15.43;;;9.10;99.90;;;;;;6097860;23;20018;-85
2023/10/27 03:24:06;;;;;;;25.77;15.77;;;9.10;99.90;;;;;;6097566;23;20018;-86
2023/10/27 03:26:32;;;;;;;22.80;14.10;;;9.20;99.90;;;;;;6048436;23;20029;-85
2023/10/27 03:28:58;;;;;;;23.03;14.43;;;9.20;99.90;;;;;;6072127;23;20014;-85
2023/10/27 03:31:25;;;;;;;24.75;14.65;;;9.20;99.90;;;;;;6095783;23;20010;-85
2023/10/27 03:33:51;;;;;;;20.67;15.02;;;9.10;99.90;;;;;;6071911;23;20029;-86
2023/10/27 03:36:21;;;;;;;23.83;15.57;;;9.30;99.90;;;;;;6024317;23;20029;-86
2023/10/27 03:38:49;;;;;;;20.35;13.90;;;9.20;99.90;;;;;;6072255;23;20022;-85
2023/10/27 03:41:15;;;;;;;24.05;14.80;;;9.20;99.90;;;;;;6072220;23;20026;-85
2023/10/27 03:43:40;;;;;;;22.83;15.23;;;9.20;99.90;;;;;;6071817;23;20018;-85
2023/10/27 03:46:07;;;;;;;23.73;15.30;;;9.20;99.90;;;;;;6071676;23;20050;-86
2023/10/27 03:48:34;;;;;;;27.40;16.35;;;9.20;99.90;;;;;;6072009;23;20053;-85
2023/10/27 03:51:05;;;;;;;22.02;14.38;;;9.20;99.90;;;;;;6048347;23;20470;-84
2023/10/27 03:53:31;;;;;;;19.92;14.30;;;9.10;99.90;;;;;;6071864;23;20085;-85
2023/10/27 03:55:57;;;;;;;22.15;14.32;;;9.20;99.90;;;;;;6097333;23;20018;-85
2023/10/27 03:58:24;;;;;;;25.50;15.50;;;9.20;99.90;;;;;;6095521;23;20029;-85
2023/10/27 04:00:50;;;;;;;21.27;14.65;;;9.20;99.90;;;;;;6047104;23;20387;-84
2023/10/27 04:03:15;;;;;;;24.10;15.57;;;9.20;99.90;;;;;;6072092;23;20018;-85
2023/10/27 04:05:44;;;;;;;25.33;14.27;;;9.20;99.90;;;;;;6048405;23;20025;-86
2023/10/27 04:08:09;;;;;;;21.05;14.25;;;9.20;99.90;;;;;;6071725;23;20482;-85
2023/10/27 04:10:38;;;;;;;26.33;14.23;;;9.20;99.90;;;;;;6047932;23;20018;-85
2023/10/27 04:13:04;;;;;;;21.48;14.48;;;9.20;99.90;;;;;;6047578;23;20018;-87
2023/10/27 04:15:30;;;;;;;23.02;14.18;;;9.20;99.90;;;;;;6047492;23;20025;-86
2023/10/27 04:17:56;;;;;;;22.98;14.60;;;9.20;99.90;;;;;;6047983;23;20399;-85
2023/10/27 04:20:22;;;;;;;22.23;14.03;;;9.20;99.90;;;;;;6047650;23;20022;-85
2023/10/27 04:22:50;;;;;;;25.83;15.10;;;9.20;99.90;;;;;;6048687;23;20399;-87
2023/10/27 04:25:35;;;;;;;20.17;12.88;;;9.10;99.90;;;;;;6024728;23;20018;-84
2023/10/27 04:28:03;;;;;;;22.05;12.95;;;9.20;99.90;;;;;;6025242;23;20101;-85
2023/10/27 04:30:31;;;;;;;19.48;13.55;;;9.20;99.90;;;;;;6047590;23;20466;-88
2023/10/27 04:32:57;;;;;;;21.98;13.85;;;9.10;99.90;;;;;;6046739;23;20026;-87
2023/10/27 04:35:23;;;;;;;21.70;13.63;;;9.20;99.90;;;;;;6070840;23;20022;-85
2023/10/27 04:37:50;;;;;;;20.63;13.47;;;9.20;99.90;;;;;;6070389;23;20026;-87
2023/10/27 04:40:16;;;;;;;20.75;12.38;;;9.10;99.90;;;;;;6046178;23;20261;-87
2023/10/27 04:42:41;;;;;;;22.07;13.87;;;9.10;99.90;;;;;;6070519;23;20058;-86
2023/10/27 04:45:08;;;;;;;23.40;13.87;;;9.10;99.90;;;;;;6071154;23;20018;-86
2023/10/27 04:47:33;;;;;;;21.95;14.20;;;9.10;99.90;;;;;;6070737;23;20037;-86
2023/10/27 04:49:59;;;;;;;23.50;13.40;;;9.10;99.90;;;;;;6047146;23;20014;-86
2023/10/27 04:52:25;;;;;;;19.83;12.23;;;9.10;99.90;;;;;;6070922;23;20375;-85
2023/10/27 04:54:50;;;;;;;18.40;11.90;;;9.10;99.90;;;;;;6071512;23;20022;-86
2023/10/27 04:57:16;;;;;;;20.17;12.67;;;9.10;99.90;;;;;;6070995;23;20025;-87
2023/10/27 04:59:42;;;;;;;21.97;13.63;;;9.10;99.90;;;;;;6096612;23;20022;-86
2023/10/27 05:02:07;;;;;;;19.40;12.23;;;9.10;99.90;;;;;;6023584;23;20443;-86
2023/10/27 05:04:33;;;;;;;22.83;13.20;;;9.10;99.90;;;;;;6070717;23;20014;-86
2023/10/27 05:06:59;;;;;;;20.30;12.53;;;9.10;99.90;;;;;;6070865;23;20126;-85
2023/10/27 05:09:24;;;;;;;21.60;13.80;;;9.10;99.90;;;;;;6048313;23;20446;-84
2023/10/27 05:11:53;;;;;;;22.00;13.23;;;9.10;99.90;;;;;;6026369;23;20019;-90
2023/10/27 05:14:18;;;;;;;18.67;12.80;;;9.10;99.90;;;;;;6046990;23;20018;-91
2023/10/27 05:16:45;;;;;;;20.87;12.97;;;9.10;99.90;;;;;;6072014;23;20070;-87
2023/10/27 05:19:12;;;;;;;;;;;9.10;99.90;;;;;;6073048;23;20022;-87
2023/10/27 05:21:40;;;;;;;20.25;12.57;;;9.10;99.90;;;;;;6048470;23;19924;-87
2023/10/27 05:24:06;;;;;;;22.85;13.15;;;9.10;99.90;;;;;;6098107;23;20029;-87
2023/10/27 05:26:32;;;;;;;19.07;12.20;;;9.10;99.90;;;;;;6097670;23;20022;-86
2023/10/27 05:28:59;;;;;;;19.63;12.93;;;9.10;99.90;;;;;;6096708;23;20272;-85
2023/10/27 05:31:25;;;;;;;19.95;12.27;;;9.10;99.90;;;;;;6071898;23;20019;-87
2023/10/27 05:33:50;;;;;;;24.67;13.23;;;9.10;99.90;;;;;;6071950;23;20030;-88
2023/10/27 05:36:16;;;;;;;18.93;12.93;;;9.00;99.90;;;;;;6072310;23;20026;-89
2023/10/27 05:38:42;;;;;;;21.80;12.70;;;9.00;99.90;;;;;;6072020;23;20023;-88
2023/10/27 05:41:08;;;;;;;20.33;12.90;;;9.10;99.90;;;;;;6072711;23;20093;-88
2023/10/27 05:43:34;;;;;;;20.83;11.80;;;9.00;99.90;;;;;;6047099;23;20526;-88
2023/10/27 05:45:59;;;;;;;18.30;12.27;;;9.10;99.90;;;;;;6048392;23;20023;-87
2023/10/27 05:48:28;;;;;;;18.67;12.90;;;9.10;99.90;;;;;;6048390;23;20018;-89
2023/10/27 05:50:53;;;;;;;17.05;12.25;;;9.00;99.90;;;;;;6048881;23;20019;-85
2023/10/27 05:53:19;;;;;;;22.80;13.47;;;9.00;99.90;;;;;;6024225;23;20041;-84
2023/10/27 05:55:47;;;;;;;19.57;11.63;;;9.00;99.90;;;;;;6071887;23;20046;-85
2023/10/27 05:58:13;;;;;;;22.45;14.10;;;9.00;99.90;;;;;;6047491;23;20045;-85
2023/10/27 06:00:39;;;;;;;19.57;11.83;;;9.10;99.90;;;;;;6072709;23;20026;-84
2023/10/27 06:03:04;;;;;;;18.80;12.90;;;8.10;99.90;;;;;;6071868;23;20022;-92
2023/10/27 06:05:31;;;;;;;20.93;13.10;;;9.10;99.90;;;;;;6024743;23;20490;-87
2023/10/27 06:07:57;;;;;;;20.42;13.45;;;9.00;99.90;;;;;;6072505;23;20538;-86
2023/10/27 06:10:23;;;;;;;20.73;12.87;;;9.10;99.90;;;;;;6048227;23;20014;-83
2023/10/27 06:12:48;;;;;;;20.43;13.10;;;9.10;99.90;;;;;;6073560;23;20026;-83
2023/10/27 06:15:14;;;;;;;21.37;13.00;;;9.10;99.90;;;;;;6072325;23;20053;-85
2023/10/27 06:17:40;;;;;;;19.67;12.90;;;9.10;99.90;;;;;;6096711;23;20462;-84
2023/10/27 06:20:06;;;;;;;19.33;12.77;;;9.10;99.90;;;;;;6097573;23;20077;-84
2023/10/27 06:22:32;;;;;;;18.13;12.18;;;9.10;99.90;;;;;;6072243;23;20482;-83
2023/10/27 06:24:58;;;;;;;21.65;13.45;;;9.10;99.90;;;;;;6098096;23;20083;-83
2023/10/27 06:27:24;;;;;;;17.80;11.93;;;9.10;99.90;;;;;;6072226;23;20081;-84
2023/10/27 06:29:50;;;;;;;18.90;11.63;;;9.10;99.90;;;;;;6069655;23;20018;-85
2023/10/27 06:32:16;;;;;;;18.37;11.97;;;9.10;99.90;;;;;;6072833;23;20022;-85
2023/10/27 06:34:41;;;;;;;19.50;12.50;;;8.70;99.90;;;;;;6072036;23;20757;-85
2023/10/27 06:37:07;;;;;;;21.70;13.18;;;9.10;99.90;;;;;;6097668;23;20022;-85
2023/10/27 06:39:34;;;;;;;19.33;13.68;;;9.00;99.90;;;;;;6072041;23;20015;-85
2023/10/27 06:42:02;;;;;;;18.10;12.30;;;9.00;99.90;;;;;;6072611;23;20045;-86
2023/10/27 06:44:28;;;;;;;18.20;12.50;;;9.00;99.90;;;;;;6096948;23;20018;-88
2023/10/27 06:46:53;;;;;;;16.83;12.10;;;9.00;99.90;;;;;;6047035;23;20334;-86
2023/10/27 06:49:19;;;;;;;19.47;12.87;;;9.00;99.90;;;;;;6023792;23;20022;-85
2023/10/27 06:51:47;;;;;;;15.80;11.18;;;9.00;99.90;;;;;;6096921;23;20470;-85
2023/10/27 06:54:13;;;;;;;17.33;11.05;;;9.00;99.90;;;;;;6023650;23;20023;-85
2023/10/27 06:56:39;;;;;;;19.85;13.45;;;9.00;99.90;;;;;;6047282;23;20045;-86
2023/10/27 06:59:05;;;;;;;17.97;12.20;;;9.00;99.90;;;;;;6024234;23;20018;-89
2023/10/27 07:01:31;;;;;;;19.20;12.60;;;9.00;99.90;;;;;;6071932;23;20030;-85
2023/10/27 07:03:56;;;;;;;14.87;11.03;;;9.00;99.90;;;;;;6047637;23;20093;-86
2023/10/27 07:06:22;;;;;;;20.73;13.07;;;9.00;99.90;;;;;;6024211;23;20023;-85
2023/10/27 07:08:48;;;;;;;17.40;12.30;;;9.10;99.90;;;;;;6071672;23;20455;-84
2023/10/27 07:11:13;;;;;;;17.70;12.33;;;9.10;99.90;;;;;;6071751;23;20018;-85
2023/10/27 07:13:39;;;;;;;14.83;11.40;;;9.10;99.90;;;;;;6047659;23;20029;-87
2023/10/27 07:16:05;;;;;;;16.97;11.50;;;9.10;99.90;;;;;;6048179;23;20022;-84
2023/10/27 07:18:31;;;;;;;16.10;11.88;;;9.10;99.90;;;;;;6048365;23;20069;-87
2023/10/27 07:20:59;;;;;;;18.40;12.15;;;9.10;99.90;;;;;;6072301;23;20029;-87
2023/10/27 07:26:38;;;;;;;16.45;10.93;;;9.10;99.90;;;;;;6095279;23;20014;-85
2023/10/27 07:29:04;;;;;;;15.47;11.50;;;9.10;99.90;;;;;;6072145;23;20052;-85
2023/10/27 07:31:30;;;;;;;18.10;11.80;;;9.10;99.90;;;;;;6070820;23;20018;-84
2023/10/27 07:33:55;;;;;;;18.43;11.93;;;9.20;99.90;;;;;;6048894;23;20027;-84
2023/10/27 07:39:57;;;;;;;25.15;12.40;;;9.20;99.90;;;;;;6096116;23;20027;-84
2023/10/27 07:42:23;;;;;;;18.00;12.32;;;9.20;99.90;;;;;;6072167;23;20021;-85
2023/10/27 07:44:49;;;;;;;20.13;12.47;;;9.20;99.90;;;;;;6047707;23;20101;-85
2023/10/27 07:47:14;;;;;;;16.47;11.13;;;9.20;99.90;;;;;;6072292;23;20022;-85
2023/10/27 07:49:40;;;;;;;15.87;11.67;;;9.20;99.90;;;;;;6071719;23;20250;-85
2023/10/27 07:52:06;;;;;;;18.67;11.27;;;9.20;99.90;;;;;;6071938;23;20046;-85
2023/10/27 07:54:32;;;;;;;16.70;11.97;;;9.20;99.90;;;;;;6049109;23;20027;-86
2023/10/27 07:56:59;;;;;;;17.88;11.43;;;9.20;99.90;;;;;;6047390;23;20015;-83
2023/10/27 07:59:26;;;;;;;19.25;12.18;;;9.30;99.90;;;;;;6070852;23;20034;-84
2023/10/27 08:55:02;;;;;;;19.65;12.48;;;9.40;99.90;;;;;;6099993;23;20069;-84
2023/10/27 08:57:28;;;;;;;19.30;14.45;;;9.40;99.90;;;;;;6073566;23;20050;-86
2023/10/27 08:59:55;;;;;;;19.57;13.03;;;9.40;99.90;;;;;;6048009;23;20029;-82
2023/10/27 09:02:27;;;;;;;;;;;9.40;99.90;;;;;;6073942;23;20018;-88
2023/10/27 09:05:09;;;;;;;20.52;13.75;;;9.40;99.90;;;;;;6049555;23;19925;-87
2023/10/27 09:07:36;;;;;;;20.92;13.38;;;9.40;99.90;;;;;;6098864;23;20019;-86
2023/10/27 09:10:04;;;;;;;20.40;13.25;;;9.50;99.90;;;;;;6048507;23;20501;-85
2023/10/27 09:12:31;;;;;;;21.23;14.10;;;9.40;99.90;;;;;;6073237;23;20037;-86
2023/10/27 09:15:07;;;;;;;17.95;13.35;;;9.50;99.90;;;;;;6077429;23;20074;-88
2023/10/27 09:17:56;;;;;;;21.05;14.95;;;9.50;99.90;;;;;;6048632;23;20447;-92
2023/10/27 09:20:23;;;;;;;20.48;14.48;;;9.50;99.90;;;;;;6048581;23;20026;-85
2023/10/27 09:23:04;;;;;;;20.73;14.82;;;9.50;99.90;;;;;;6096637;23;20029;-86
2023/10/27 09:25:34;;;;;;;19.50;14.27;;;9.60;99.90;;;;;;6048234;23;20026;-87
2023/10/27 09:28:07;;;;;;;22.77;14.65;;;9.60;99.90;;;;;;6071487;23;20102;-87
2023/10/27 09:30:37;;;;;;;22.85;15.52;;;9.60;99.90;;;;;;6098453;23;20097;-85
2023/10/27 09:33:25;;;;;;;24.23;16.05;;;9.60;99.90;;;;;;6072356;23;20025;-86
2023/10/27 09:35:52;;;;;;;22.88;15.02;;;9.60;99.90;;;;;;6048420;23;20085;-88
2023/10/27 09:38:18;;;;;;;;;;;9.70;99.90;;;;;;6049069;23;20101;-86
2023/10/27 09:40:48;;;;;;;21.55;14.68;;;9.70;99.90;;;;;;6048897;23;20242;-85
2023/10/27 09:43:23;;;;;;;22.88;14.50;;;9.70;99.90;;;;;;6072350;23;20433;-86
2023/10/27 09:46:02;;;;;;;22.35;14.98;;;9.70;99.90;;;;;;6075060;23;20050;-89
2023/10/27 09:48:30;;;;;;;22.20;14.85;;;9.80;99.90;;;;;;6072777;23;20054;-88
2023/10/27 09:51:06;;;;;;;22.02;14.55;;;9.80;99.90;;;;;;6048081;23;20359;-88
2023/10/27 09:53:33;;;;;;;24.17;15.53;;;9.80;99.90;;;;;;6071304;23;20022;-92
2023/10/27 09:56:00;;;;;;;22.33;15.00;;;9.80;99.90;;;;;;6046118;23;20077;-89
2023/10/27 09:58:39;;;;;;;26.17;16.02;;;9.90;99.90;;;;;;6024120;23;20096;-87
2023/10/27 10:01:09;;;;;;;23.85;15.48;;;9.80;99.90;;;;;;6047434;23;20324;-88
2023/10/27 10:03:41;;;;;;;23.75;15.80;;;9.80;99.90;;;;;;6072430;23;20057;-87
2023/10/27 10:06:18;;;;;;;23.00;15.55;;;9.80;99.90;;;;;;6047820;23;20097;-87
2023/10/27 10:09:09;;;;;;;24.35;15.80;;;9.90;99.90;;;;;;6047919;23;20517;-91
2023/10/27 10:11:53;;;;;;;22.55;15.48;;;9.90;99.90;;;;;;6047615;23;20454;-88
2023/10/27 10:14:38;;;;;;;22.20;15.85;;;9.90;99.90;;;;;;6071412;23;20097;-88
2023/10/27 10:17:08;;;;;;;25.80;14.93;;;9.90;99.90;;;;;;6048248;23;20026;-88
2023/10/27 10:19:50;;;;;;;23.35;15.30;;;9.90;99.90;;;;;;6025376;23;20097;-88
2023/10/27 10:22:37;;;;;;;21.08;14.32;;;9.90;99.90;;;;;;6049531;23;20022;-85
2023/10/27 10:25:18;;;;;;;21.95;14.93;;;9.90;99.90;;;;;;6071167;23;20022;-87
2023/10/27 10:28:09;;;;;;;21.13;14.32;;;9.90;99.90;;;;;;6048157;23;20018;-87
2023/10/27 10:30:37;;;;;;;24.23;15.27;;;9.90;99.90;;;;;;6072308;23;20029;-87
2023/10/27 10:33:27;;;;;;;21.42;14.85;;;9.90;99.90;;;;;;6071643;23;20093;-90
2023/10/27 10:36:22;;;;;;;22.85;15.77;;;9.90;99.90;;;;;;6072525;23;20025;-87
2023/10/27 10:38:53;;;;;;;24.55;15.02;;;9.90;99.90;;;;;;6072258;23;20014;-87
2023/10/27 10:41:19;;;;;;;18.90;13.50;;;9.90;99.90;;;;;;6047337;23;20402;-87
2023/10/27 10:44:06;;;;;;;23.00;15.83;;;9.90;99.90;;;;;;6072175;23;20018;-87
2023/10/27 10:46:32;;;;;;;23.67;14.73;;;9.90;99.90;;;;;;6070616;23;20474;-87
2023/10/27 10:49:01;;;;;;;22.42;14.45;;;10.00;99.90;;;;;;6047528;23;20025;-88
2023/10/27 10:51:30;;;;;;;22.05;15.48;;;10.00;99.90;;;;;;6047556;23;20018;-89
2023/10/27 10:53:56;;;;;;;20.20;14.50;;;10.80;99.90;;;;;;6047359;23;20054;-87
2023/10/27 10:56:24;;;;;;;21.65;14.50;;;9.90;99.90;;;;;;6047024;23;20085;-88
2023/10/27 10:58:50;;;;;;;25.42;16.35;;;10.00;99.90;;;;;;6070624;23;20029;-89
2023/10/27 11:01:18;;;;;;;25.53;16.47;;;10.00;99.90;;;;;;6045793;23;20026;-88
2023/10/27 11:03:48;;;;;;;23.42;14.63;;;9.90;99.90;;;;;;6046756;23;20058;-88
2023/10/27 11:06:14;;;;;;;21.60;14.73;;;10.00;99.90;;;;;;6070534;23;20025;-88
2023/10/27 11:08:40;;;;;;;20.13;14.67;;;10.00;99.90;;;;;;6071185;23;20023;-88
2023/10/27 11:11:14;;;;;;;21.07;14.77;;;10.00;99.90;;;;;;6047443;23;20026;-88
2023/10/27 11:13:54;;;;;;;22.85;16.00;;;9.70;99.90;;;;;;6071248;23;20053;-89
2023/10/27 11:16:25;;;;;;;22.35;15.63;;;10.00;99.90;;;;;;6071257;23;20014;-88
2023/10/27 11:18:57;;;;;;;23.10;16.30;;;10.00;99.90;;;;;;6047704;23;20034;-90
2023/10/27 11:21:27;;;;;;;24.52;17.17;;;10.00;99.90;;;;;;6070734;23;20081;-84
2023/10/27 11:23:54;;;;;;;26.42;17.23;;;10.00;99.90;;;;;;6000121;23;20022;-85
2023/10/27 11:26:22;;;;;;;24.45;17.67;;;10.00;99.90;;;;;;6094592;23;20026;-90
2023/10/27 11:28:48;;;;;;;23.85;16.50;;;10.00;99.90;;;;;;6046470;23;20057;-89
2023/10/27 11:31:23;;;;;;;24.17;16.55;;;10.00;99.90;;;;;;6046308;23;20022;-87
2023/10/27 11:34:03;;;;;;;23.08;16.73;;;10.00;99.90;;;;;;6070757;23;20089;-88
2023/10/27 11:36:32;;;;;;;24.02;16.88;;;10.10;99.90;;;;;;6047337;23;20019;-88
2023/10/27 11:39:13;;;;;;;26.08;17.52;;;10.00;99.90;;;;;;6047078;23;20018;-90
2023/10/27 11:41:40;;;;;;;25.38;17.20;;;10.10;99.90;;;;;;6069373;23;20053;-90
2023/10/27 11:44:05;;;;;;;;;;;10.10;99.90;;;;;;6046552;23;20014;-89
2023/10/27 11:46:35;;;;;;;27.25;17.77;;;10.10;99.90;;;;;;6045987;23;19968;-90
2023/10/27 11:49:04;;;;;;;31.00;20.35;;;9.50;99.90;;;;;;6070582;23;20018;-90
2023/10/27 11:51:32;;;;;;;29.55;18.52;;;9.20;99.90;;;;;;6069652;23;20093;-90
2023/10/27 11:54:00;;;;;;;25.45;18.23;;;10.10;99.90;;;;;;6046545;23;20050;-89
2023/10/27 11:56:25;;;;;;;27.60;19.40;;;10.10;99.90;;;;;;6046181;23;20076;-90
2023/10/27 11:58:51;;;;;;;30.60;20.80;;;10.10;99.90;;;;;;6070952;23;20089;-89
2023/10/27 12:01:19;;;;;;;28.97;19.00;;;10.10;99.90;;;;;;6046187;23;20030;-90
2023/10/27 12:03:48;;;;;;;25.23;17.05;;;10.10;99.90;;;;;;6046239;23;20073;-89
2023/10/27 12:06:14;;;;;;;27.83;17.77;;;10.00;99.90;;;;;;6070255;23;20018;-90
2023/10/27 12:08:40;;;;;;;28.20;18.13;;;10.10;99.90;;;;;;6070247;23;20019;-89
2023/10/27 12:11:08;;;;;;;31.10;19.30;;;10.10;99.90;;;;;;6096204;23;20067;-88
2023/10/27 12:13:34;;;;;;;27.48;19.08;;;10.10;99.90;;;;;;6046566;23;20018;-88
2023/10/27 12:16:00;;;;;;;28.60;19.30;;;10.10;99.90;;;;;;6023107;23;20029;-88
2023/10/27 12:18:26;;;;;;;29.17;19.73;;;10.10;99.90;;;;;;6045438;23;20026;-88
2023/10/27 12:20:52;;;;;;;30.38;18.67;;;10.10;99.90;;;;;;6046081;23;20254;-89
2023/10/27 12:23:18;;;;;;;28.47;19.43;;;10.10;99.90;;;;;;6047000;23;20417;-88
2023/10/27 12:25:45;;;;;;;27.60;17.77;;;10.10;99.90;;;;;;6070227;23;20015;-88
2023/10/27 12:28:13;;;;;;;31.77;20.08;;;10.10;99.90;;;;;;6047365;23;20253;-88
2023/10/27 12:30:41;;;;;;;28.57;18.97;;;10.10;99.90;;;;;;6046426;23;20153;-89
2023/10/27 12:33:12;;;;;;;32.28;19.00;;;10.10;99.90;;;;;;6022995;23;20033;-89
2023/10/27 12:35:41;;;;;;;28.00;19.20;;;10.10;99.90;;;;;;6046417;23;20022;-88
2023/10/27 12:38:09;;;;;;;25.38;17.90;;;10.10;99.90;;;;;;6024117;23;20022;-88
2023/10/27 12:40:34;;;;;;;29.50;19.63;;;10.10;99.90;;;;;;6045728;23;20143;-88
2023/10/27 12:43:04;;;;;;;26.10;18.77;;;10.10;99.90;;;;;;6069631;23;20042;-89
2023/10/27 12:45:30;;;;;;;30.75;18.73;;;10.10;99.90;;;;;;6022039;23;20101;-88
2023/10/27 12:47:56;;;;;;;27.23;18.13;;;10.10;99.90;;;;;;6069638;23;20050;-85
2023/10/27 12:50:22;;;;;;;29.27;19.58;;;10.10;99.90;;;;;;6070030;23;20029;-84
2023/10/27 12:52:48;;;;;;;32.13;21.88;;;10.00;99.90;;;;;;6069906;23;20086;-84
2023/10/27 12:55:14;;;;;;;33.83;21.07;;;10.20;99.90;;;;;;6046453;23;20443;-83
2023/10/27 12:57:40;;;;;;;28.10;18.23;;;10.10;99.90;;;;;;6070050;23;20493;-84
2023/10/27 13:00:17;;;;;;;29.63;20.08;;;10.10;99.90;;;;;;6022349;23;20258;-86
2023/10/27 13:02:44;;;;;;;33.55;19.90;;;10.10;99.90;;;;;;6045910;23;20023;-84
2023/10/27 13:05:12;;;;;;;30.27;20.90;;;10.20;99.90;;;;;;6069919;23;20015;-84
2023/10/27 13:07:41;;;;;;;34.67;20.52;;;10.20;99.90;;;;;;6023336;23;20026;-84
2023/10/27 13:10:10;;;;;;;31.27;19.65;;;10.20;99.90;;;;;;6070001;23;20502;-82
2023/10/27 13:12:37;;;;;;;32.88;19.60;;;10.20;99.90;;;;;;6069873;23;20502;-82
2023/10/27 13:15:09;;;;;;;;;;;10.10;99.90;;;;;;6047021;23;20375;-84
2023/10/27 13:17:37;;;;;;;28.60;19.33;;;10.90;99.90;;;;;;6069298;23;19922;-88
2023/10/27 13:20:06;;;;;;;30.63;22.02;;;10.10;99.90;;;;;;6069144;23;20335;-84
2023/10/27 13:22:33;;;;;;;34.45;21.17;;;10.00;99.90;;;;;;6068524;23;20351;-84
2023/10/27 13:25:08;;;;;;;32.95;20.98;;;10.10;99.90;;;;;;6046179;23;20134;-85
2023/10/27 13:27:34;;;;;;;32.17;19.80;;;9.30;99.90;;;;;;6022882;23;20506;-84
2023/10/27 13:30:06;;;;;;;32.78;21.55;;;10.10;99.90;;;;;;6070368;23;20022;-85
2023/10/27 13:32:34;;;;;;;35.35;22.05;;;10.10;99.90;;;;;;6048625;23;20028;-85
2023/10/27 13:35:01;;;;;;;35.03;21.42;;;10.10;99.90;;;;;;6048775;23;20077;-85
2023/10/27 13:37:31;;;;;;;35.15;22.33;;;10.10;99.90;;;;;;6070947;23;20097;-84
2023/10/27 13:39:57;;;;;;;32.55;21.55;;;10.00;99.90;;;;;;6071298;23;20025;-84
2023/10/27 13:42:23;;;;;;;35.50;21.37;;;10.00;99.90;;;;;;6023512;23;20026;-84